• Join FlightAware (Why Join?)
  • Login
  • US Flag 
06:35AM EDT


 

Airport Tracker/Info


-or-


 

Live Flight TrackerFlight Track Log ✈ TAM3216 ✈ 30-Oct-2013 ✈ SBSV / SSA - SBFZ / FOR

Flight Track Log - Related Links

Times and Time Zones

All times are in EDT time to prevent confusion due to time zone crossing. See the TAM3216 flight status page for this flight to view local times or setup timezone preferences in your user account.

Time Position Orientation Groundspeed Altitude Reporting Facility
EDT Latitude Longitude Course Direction KTS MPH feet Rate Location/Type
11:39AM -12.9090 -38.3250 90° East 115 132  Level FlightAware
11:39AM -12.9030 -38.2970 78° East 149 171 1,300 1,800 Climbing FlightAware
11:40AM -12.8970 -38.2670 78° East 155 178 2,600 1,800 Climbing FlightAware
11:40AM -12.8820 -38.2550 38° Northeast 167 192 3,400 1,500 Climbing FlightAware
11:41AM -12.8640 -38.2710 319° Northwest 189 217 4,100 1,080 Climbing FlightAware
11:42AM -12.8660 -38.3130 267° West 237 273 4,700 1,560 Climbing FlightAware
11:42AM -12.8690 -38.3630 266° West 257 296 6,300 2,340 Climbing FlightAware
11:43AM -12.8700 -38.3950 268° West 262 302 7,400 2,280 Climbing FlightAware
11:44AM -12.8470 -38.4480 294° West 278 320 9,100 1,980 Climbing FlightAware
11:44AM -12.8250 -38.4880 299° West 297 342 10,100 1,320 Climbing FlightAware
11:45AM -12.7930 -38.5490 298° West 345 397 10,900 1,500 Climbing FlightAware
11:46AM -12.7620 -38.6090 298° West 357 411 12,300 2,040 Climbing FlightAware
11:46AM -12.7090 -38.6630 315° West 363 418 13,900 1,800 Climbing FlightAware
11:47AM -12.6590 -38.6950 328° Northwest 378 435 14,700 1,680 Climbing FlightAware
11:48AM -12.6000 -38.7330 328° Northwest 382 440 16,000 1,740 Climbing FlightAware
11:48AM -12.5380 -38.7660 333° Northwest 391 450 17,000 1,560 Climbing FlightAware
11:49AM -12.4580 -38.7600 North 394 453 18,200 1,500 Climbing FlightAware
11:50AM -12.3740 -38.7450 10° North 404 465 19,300 1,680 Climbing FlightAware
11:51AM -12.2850 -38.7290 10° North 396 456 20,900 1,740 Climbing FlightAware
11:51AM -12.2180 -38.7180 North 400 460 21,800 1,200 Climbing FlightAware
11:52AM -12.1520 -38.7060 10° North 410 472 22,400 960 Climbing FlightAware
11:53AM -12.0440 -38.6880 North 424 488 23,300 960 Climbing FlightAware
11:53AM -11.9770 -38.6770 North 433 498 23,900 1,020 Climbing FlightAware
11:54AM -11.8970 -38.6630 10° North 438 504 24,600 1,020 Climbing FlightAware
11:55AM -11.8130 -38.6480 10° North 445 512 25,300 960 Climbing FlightAware
11:55AM -11.7390 -38.6360 North 451 519 25,900 900 Climbing FlightAware
11:56AM -11.6560 -38.6220 North 455 524 26,500 1,080 Climbing FlightAware
11:57AM -11.5730 -38.6070 10° North 454 522 27,400 1,080 Climbing FlightAware
11:57AM -11.5060 -38.5960 North 460 529 27,800 600 Climbing FlightAware
11:58AM -11.4300 -38.5830 10° North 468 539 28,100 480 Climbing FlightAware
11:58AM -11.3470 -38.5690 North 476 548 28,500 600 Climbing FlightAware
11:59AM -11.2680 -38.5560 North 481 554 28,900 780 Climbing FlightAware
11:59AM -11.2050 -38.5450 10° North 485 558 29,300 780 Climbing FlightAware
12:00PM -11.1070 -38.5280 10° North 485 558 29,900 840 Climbing FlightAware
12:01PM -11.0350 -38.5160 North 483 556 30,400 1,080 Climbing FlightAware
12:01PM -10.9760 -38.5060 North 480 552 31,000 1,020 Climbing FlightAware
12:02PM -10.8730 -38.4880 10° North 477 549 31,700 1,020 Climbing FlightAware
12:03PM -10.7820 -38.4730 North 470 541 32,600 1,080 Climbing FlightAware
12:03PM -10.6960 -38.4580 10° North 469 540 33,200 1,140 Climbing FlightAware
12:04PM -10.6310 -38.4470 North 461 531 34,000 1,080 Climbing FlightAware
12:04PM -10.5360 -38.4310 North 459 528 34,600 720 Climbing FlightAware
12:05PM -10.4990 -38.4250 North 459 528 34,800 240 Climbing FlightAware
12:06PM -10.3690 -38.4030 North 460 529 35,000 60 Climbing FlightAware
12:07PM -10.2800 -38.3890 North 456 525 35,000  Level FlightAware
12:07PM -10.2560 -38.3880 North 456 525 35,000  Level FlightAware
12:08PM -10.1370 -38.3910 359° North 456 525 35,000  Level FlightAware
12:09PM -10.0030 -38.3970 357° North 457 526 35,000  Level FlightAware
12:09PM -9.9170 -38.4020 357° North 459 528 35,000  Level FlightAware
12:10PM -9.7890 -38.4050 359° North 457 526 35,000  Level FlightAware
12:11PM -9.7080 -38.4070 359° North 456 525 35,000  Level FlightAware
12:11PM -9.6920 -38.4070 360° North 456 525 35,000  Level FlightAware
12:13PM -9.5010 -38.4120 359° North 456 525 35,000  Level FlightAware
12:13PM -9.4170 -38.4140 359° North 458 527 35,000  Level FlightAware
12:14PM -9.3320 -38.4160 359° North 459 528 35,000  Level FlightAware
12:14PM -9.2710 -38.4170 359° North 458 527 35,000  Level FlightAware
12:15PM -9.1700 -38.4200 358° North 457 526 35,000  Level FlightAware
12:16PM -9.0850 -38.4220 359° North 457 526 35,000  Level FlightAware
12:17PM -8.9910 -38.4240 359° North 457 526 35,000  Level FlightAware
12:17PM -8.9110 -38.4260 359° North 457 526 35,000  Level FlightAware
12:18PM -8.8460 -38.4270 359° North 457 526 35,000  Level FlightAware
12:19PM -8.7540 -38.4300 358° North 456 525 35,000  Level FlightAware
12:19PM -8.6690 -38.4320 359° North 455 524 35,000  Level FlightAware
12:20PM -8.5930 -38.4330 359° North 455 524 35,000  Level FlightAware
12:20PM -8.5440 -38.4350 358° North 456 525 35,000  Level FlightAware
12:21PM -8.4540 -38.4370 359° North 456 525 35,000  Level FlightAware
12:21PM -8.3810 -38.4390 358° North 456 525 35,000  Level FlightAware
12:22PM -8.3480 -38.4390 360° North 457 526 35,000  Level FlightAware
12:23PM -8.2330 -38.4430 358° North 457 526 35,000  Level FlightAware
12:23PM -8.1680 -38.4460 357° North 457 526 35,000  Level FlightAware
12:24PM -8.1030 -38.4480 358° North 457 526 35,000  Level FlightAware
12:25PM -8.0390 -38.4500 358° North 457 526 35,000  Level FlightAware
12:25PM -7.9740 -38.4520 358° North 457 526 35,000  Level FlightAware
12:26PM -7.9080 -38.4550 357° North 457 526 35,000  Level FlightAware
12:27PM -7.7980 -38.4590 358° North 457 526 35,000  Level FlightAware
12:27PM -7.7530 -38.4600 359° North 457 526 35,000  Level FlightAware
12:28PM -7.6880 -38.4630 357° North 457 526 35,000  Level FlightAware
12:28PM -7.6270 -38.4650 358° North 457 526 35,000  Level FlightAware
12:29PM -7.5650 -38.4670 358° North 457 526 35,000  Level FlightAware
12:30PM -7.3810 -38.4620 North 461 531 35,000  Level FlightAware
12:31PM -7.2850 -38.4660 358° North 461 531 35,000  Level FlightAware
12:31PM -7.2190 -38.4680 358° North 461 531 35,000  Level FlightAware
12:33PM -6.9570 -38.4730 359° North 459 528 35,000  Level FlightAware
12:33PM -6.8730 -38.4740 359° North 459 528 35,000  Level FlightAware
12:34PM -6.7660 -38.4770 358° North 460 529 35,000  Level FlightAware
12:35PM -6.6280 -38.4810 358° North 460 529 35,000  Level FlightAware
12:36PM -6.5320 -38.4820 359° North 461 531 35,000  Level FlightAware
12:36PM -6.4960 -38.4830 358° North 461 531 35,000  Level FlightAware
12:37PM -6.3770 -38.4860 359° North 462 532 35,000  Level FlightAware
12:38PM -6.2750 -38.4890 358° North 463 533 35,000  Level FlightAware
12:38PM -6.2100 -38.4900 359° North 464 534 35,000  Level FlightAware
12:39PM -6.1290 -38.4920 359° North 465 535 35,000  Level FlightAware
12:39PM -6.1020 -38.4930 358° North 465 535 35,000  Level FlightAware
12:40PM -5.9640 -38.4960 359° North 466 536 35,000 -1,020 Level FlightAware
12:41PM -5.8350 -38.4990 359° North 462 532 33,000 -2,040 Descending FlightAware
12:42PM -5.7770 -38.5000 359° North 457 526 32,100 -2,100 Descending FlightAware
12:42PM -5.6990 -38.5020 359° North 451 519 30,800 -2,220 Descending FlightAware
12:43PM -5.6070 -38.5040 359° North 445 512 29,100 -2,220 Descending FlightAware
12:44PM -5.5460 -38.5060 358° North 433 498 28,100 -2,040 Descending FlightAware
12:44PM -5.4740 -38.5070 359° North 418 481 26,900 -1,980 Descending FlightAware
12:45PM -5.3620 -38.5100 358° North 397 457 25,000 -1,920 Descending FlightAware
12:46PM -5.2880 -38.5120 358° North 389 448 23,800 -1,800 Descending FlightAware
12:47PM -5.1790 -38.5140 359° North 380 437 22,000 -1,740 Descending FlightAware
12:48PM -5.0980 -38.5160 359° North 377 434 20,700 -1,740 Descending FlightAware
12:48PM -5.0490 -38.5180 358° North 374 430 19,900 -1,620 Descending FlightAware
12:49PM -4.9810 -38.5190 359° North 369 425 18,900 -1,620 Descending FlightAware
12:49PM -4.9310 -38.5200 359° North 365 420 18,100 -1,680 Descending FlightAware
12:50PM -4.8680 -38.5220 358° North 359 413 17,100 -1,500 Descending FlightAware
12:50PM -4.8150 -38.5230 359° North 355 409 16,400 -1,380 Descending FlightAware
12:51PM -4.7470 -38.5240 359° North 347 399 15,400 -1,500 Descending FlightAware
12:52PM -4.6920 -38.5260 358° North 343 395 14,500 -1,500 Descending FlightAware
12:52PM -4.6380 -38.5270 359° North 338 389 13,700 -1,440 Descending FlightAware
12:53PM -4.5820 -38.5280 359° North 333 383 12,800 -1,440 Descending FlightAware
12:53PM -4.5340 -38.5290 359° North 329 379 12,100 -1,440 Descending FlightAware
12:54PM -4.4850 -38.5310 358° North 326 375 11,300 -1,440 Descending FlightAware
12:55PM -4.4300 -38.5320 359° North 324 373 10,500 -1,080 Descending FlightAware
12:55PM -4.3800 -38.5330 359° North 306 352 10,100 -1,080 Descending FlightAware
12:56PM -4.3230 -38.5350 358° North 302 348 9,200 -1,440 Descending FlightAware
12:56PM -4.2710 -38.5360 359° North 298 343 8,300 -1,440 Descending FlightAware
12:57PM -4.2240 -38.5370 359° North 293 337 7,500 -1,380 Descending FlightAware
12:58PM -4.1710 -38.5380 359° North 287 330 6,600 -1,440 Descending FlightAware
12:58PM -4.1300 -38.5390 359° North 286 329 5,800 -1,560 Descending FlightAware
12:59PM -4.0880 -38.5400 359° North 282 325 5,000 -1,620 Descending FlightAware
12:59PM -4.0360 -38.5410 359° North 276 318 4,000 -1,500 Descending FlightAware
01:00PM -3.9870 -38.5420 359° North 273 314 3,100 -1,380 Descending FlightAware
01:00PM -3.9520 -38.5430 358° North 264 304 2,500 -900 Descending FlightAware
01:01PM -3.9110 -38.5440 359° North 241 277 2,200 -600 Descending FlightAware
01:02PM -3.8680 -38.5400 North 217 250 1,800 -540 Descending FlightAware
01:02PM -3.8490 -38.5370 North 219 252 1,700 -300 Descending FlightAware
01:03PM -3.8170 -38.5690 315° West 217 250 1,500 -240 Descending FlightAware
01:03PM -3.8030 -38.5970 297° West 173 199 1,400 -240 Descending FlightAware
01:04PM -3.7880 -38.6000 349° North 155 178 1,300 -420 Descending FlightAware
01:04PM -3.7660 -38.5910 22° Northeast 131 151 1,000 -540 Descending FlightAware
01:05PM -3.7670 -38.5670 92° East 124 143 600 -600 Descending FlightAware
01:06PM -3.7730 -38.5470 107° East 127 146 300 -600 Descending FlightAware